Station Historical Data
Daily Summary for January 4, 2017 Units:  English    Metric   Both
Next Day »
Daily Weekly Monthly Yearly Custom
  High: Low: Average:
Temperature: 45.3 °F 41.3 °F 43.6 °F
Dew Point: 44.5 °F 40.3 °F 42.7 °F
Humidity: 97% 96% 97%
Wind Speed: 25.0mph 0.0mph 5.6mph
Wind Gust: 35.0mph - -
Wind- - SSW
Pressure: 30.01 in 29.92 in -
Precipitation: 0.00 in    
Historical Graphs
 
 
Tabular Data for January 4, 2017
Time Temperature Dew Point Pressure Wind Wind Speed Wind Gust Humidity Rainfall Rate (Hourly) solar Conditions
00:00 44.2 °F 43.4 °F 29.95 in SSE 10.0 mph 26.0 mph 97% 0.13 in 0.00 W/m2
00:05 44.2 °F 43.4 °F 29.96 in South 5.0 mph 31.0 mph 97% 0.15 in 0.00 W/m2
00:10 44.2 °F 43.4 °F 29.95 in SSE 10.0 mph 24.0 mph 97% 0.12 in 0.00 W/m2
00:15 44.2 °F 43.4 °F 29.95 in SSE 10.0 mph 27.0 mph 97% 0.21 in 0.00 W/m2
00:20 44.3 °F 43.5 °F 29.95 in South 7.0 mph 24.0 mph 97% 0.08 in 0.00 W/m2
00:25 44.3 °F 43.5 °F 29.95 in SSE 19.0 mph 31.0 mph 97% 0.07 in 0.00 W/m2
00:30 44.3 °F 43.5 °F 29.94 in South 18.0 mph 24.0 mph 97% 0.12 in 0.00 W/m2
00:35 44.3 °F 43.5 °F 29.95 in South 14.0 mph 30.0 mph 97% 0.07 in 0.00 W/m2
00:40 44.4 °F 43.6 °F 29.95 in South 15.0 mph 31.0 mph 97% 0.05 in 0.00 W/m2
00:45 44.5 °F 43.7 °F 29.94 in South 12.0 mph 27.0 mph 97% 0.04 in 0.00 W/m2
00:50 44.5 °F 43.7 °F 29.94 in SSE 14.0 mph 35.0 mph 97% 0.04 in 0.00 W/m2
00:55 44.6 °F 43.8 °F 29.94 in SSE 10.0 mph 29.0 mph 97% 0.08 in 0.00 W/m2
01:00 44.5 °F 43.4 °F 29.94 in South 20.0 mph 25.0 mph 96% 0.08 in 0.00 W/m2
01:05 44.5 °F 43.4 °F 29.93 in South 5.0 mph 26.0 mph 96% 0.17 in 0.00 W/m2
01:10 44.5 °F 43.4 °F 29.94 in South 16.0 mph 24.0 mph 96% 0.16 in 0.00 W/m2
01:15 44.5 °F 43.4 °F 29.93 in SW 15.0 mph 25.0 mph 96% 0.09 in 0.00 W/m2
01:20 44.6 °F 43.8 °F 29.93 in SSW 15.0 mph 24.0 mph 97% 0.08 in 0.00 W/m2
01:25 44.6 °F 43.8 °F 29.93 in South 10.0 mph 23.0 mph 97% 0.05 in 0.00 W/m2
01:30 44.7 °F 43.9 °F 29.93 in South 22.0 mph 31.0 mph 97% 0.05 in 0.00 W/m2
01:35 44.9 °F 44.1 °F 29.92 in SSW 18.0 mph 25.0 mph 97% 0.07 in 0.00 W/m2
01:40 44.9 °F 44.1 °F 29.92 in SSE 13.0 mph 25.0 mph 97% 0.18 in 0.00 W/m2
01:45 44.9 °F 44.1 °F 29.92 in South 4.0 mph 25.0 mph 97% 0.29 in 0.00 W/m2
01:50 44.9 °F 44.1 °F 29.92 in SSE 17.0 mph 25.0 mph 97% 0.10 in 0.00 W/m2
01:55 44.9 °F 44.1 °F 29.92 in SSE 19.0 mph 28.0 mph 97% 0.06 in 0.00 W/m2
02:00 44.9 °F 44.1 °F 29.92 in SSW 17.0 mph 32.0 mph 97% 0.06 in 0.00 W/m2
02:05 44.9 °F 44.1 °F 29.92 in SSE 18.0 mph 31.0 mph 97% 0.06 in 0.00 W/m2
02:10 45.0 °F 44.2 °F 29.93 in SSE 9.0 mph 33.0 mph 97% 0.12 in 0.00 W/m2
02:20 45.0 °F 44.2 °F 29.93 in SW 12.0 mph 32.0 mph 97% 0.10 in 0.00 W/m2
02:25 45.0 °F 44.2 °F 29.94 in SSE 10.0 mph 27.0 mph 97% 0.21 in 0.00 W/m2
02:30 45.0 °F 44.2 °F 29.95 in SSE 12.0 mph 30.0 mph 97% 0.10 in 0.00 W/m2
02:35 45.1 °F 44.3 °F 29.95 in Calm   30.0 mph 97% 0.22 in 0.00 W/m2
02:40 45.2 °F 44.4 °F 29.95 in SSW 25.0 mph 29.0 mph 97% 0.18 in 0.00 W/m2
02:45 45.2 °F 44.4 °F 29.95 in South 17.0 mph 26.0 mph 97% 0.16 in 0.00 W/m2
02:50 45.2 °F 44.4 °F 29.96 in SW 9.0 mph 23.0 mph 97% 0.07 in 0.00 W/m2
02:55 45.1 °F 44.0 °F 29.96 in SSW 15.0 mph 25.0 mph 96% 0.20 in 0.00 W/m2
03:00 45.2 °F 44.1 °F 29.95 in South 7.0 mph 30.0 mph 96% 0.24 in 0.00 W/m2
03:05 45.2 °F 44.4 °F 29.96 in West 10.0 mph 23.0 mph 97% 0.16 in 0.00 W/m2
03:10 45.2 °F 44.4 °F 29.96 in SW 4.0 mph 23.0 mph 97% 0.21 in 0.00 W/m2
03:20 45.1 °F 44.0 °F 29.96 in South 5.0 mph 28.0 mph 96% 0.61 in 0.00 W/m2
03:25 45.1 °F 44.0 °F 29.97 in SW 5.0 mph 18.0 mph 96% 0.27 in 0.00 W/m2
03:30 45.0 °F 43.9 °F 29.97 in SSW 7.0 mph 20.0 mph 96% 0.38 in 0.00 W/m2
03:35 44.9 °F 43.8 °F 29.98 in WSW 7.0 mph 22.0 mph 96% 0.27 in 0.00 W/m2
03:40 44.9 °F 43.8 °F 29.98 in West 5.0 mph 19.0 mph 96% 0.60 in 0.00 W/m2
03:45 44.9 °F 43.8 °F 29.99 in WSW 4.0 mph 14.0 mph 96% 0.28 in 0.00 W/m2
03:50 44.8 °F 43.7 °F 29.99 in SSW 17.0 mph 21.0 mph 96% 0.16 in 0.00 W/m2
03:55 44.8 °F 43.7 °F 29.98 in WSW 6.0 mph 23.0 mph 96% 0.23 in 0.00 W/m2
04:00 44.8 °F 43.7 °F 29.98 in SW 10.0 mph 24.0 mph 96% 0.08 in 0.00 W/m2
04:05 44.8 °F 43.7 °F 29.97 in SSW 5.0 mph 18.0 mph 96% 0.08 in 0.00 W/m2
04:10 44.9 °F 43.8 °F 29.98 in SSW 5.0 mph 24.0 mph 96% 0.13 in 0.00 W/m2
04:15 44.9 °F 43.8 °F 29.97 in SSW 7.0 mph 19.0 mph 96% 0.12 in 0.00 W/m2
04:20 45.0 °F 43.9 °F 29.98 in SSW 14.0 mph 27.0 mph 96% 0.12 in 0.00 W/m2
04:25 45.0 °F 43.9 °F 29.97 in SSW 14.0 mph 25.0 mph 96% 0.14 in 0.00 W/m2
04:30 44.9 °F 43.8 °F 29.98 in SSW 1.0 mph 21.0 mph 96% 0.15 in 0.00 W/m2
04:35 44.9 °F 43.8 °F 29.98 in SSW 5.0 mph 18.0 mph 96% 0.18 in 0.00 W/m2
04:45 44.8 °F 43.7 °F 29.97 in South 12.0 mph 22.0 mph 96% 0.06 in 0.00 W/m2
04:50 44.7 °F 43.6 °F 29.97 in South 7.0 mph 20.0 mph 96% 0.06 in 0.00 W/m2
04:55 44.7 °F 43.6 °F 29.97 in SSE 10.0 mph 24.0 mph 96% 0.06 in 0.00 W/m2
05:00 44.6 °F 43.5 °F 29.97 in SSW 3.0 mph 23.0 mph 96% 0.06 in 0.00 W/m2
05:05 44.6 °F 43.5 °F 29.96 in SSW 7.0 mph 24.0 mph 96% 0.20 in 0.00 W/m2
05:11 44.6 °F 43.5 °F 29.97 in SSW 4.0 mph 22.0 mph 96% 0.12 in 0.00 W/m2
05:16 44.6 °F 43.5 °F 29.97 in South 6.0 mph 24.0 mph 96% 0.15 in 0.00 W/m2
05:21 44.7 °F 43.6 °F 29.97 in SSW 20.0 mph 26.0 mph 96% 0.12 in 0.00 W/m2
05:26 44.7 °F 43.6 °F 29.98 in South 20.0 mph 24.0 mph 96% 0.24 in 0.00 W/m2
05:31 44.7 °F 43.6 °F 29.98 in SSW 14.0 mph 20.0 mph 96% 0.29 in 0.00 W/m2
05:36 44.7 °F 43.9 °F 29.98 in South 8.0 mph 26.0 mph 97% 0.10 in 0.00 W/m2
05:41 44.7 °F 43.9 °F 29.98 in SW 8.0 mph 24.0 mph 97% 0.16 in 0.00 W/m2
05:46 44.7 °F 43.6 °F 29.98 in South 6.0 mph 18.0 mph 96% 0.10 in 0.00 W/m2
05:51 44.7 °F 43.9 °F 29.98 in SSW 14.0 mph 19.0 mph 97% 0.08 in 0.00 W/m2
05:56 44.7 °F 43.6 °F 29.98 in SW 13.0 mph 18.0 mph 96% 0.07 in 0.00 W/m2
06:01 44.7 °F 43.6 °F 29.98 in South 2.0 mph 18.0 mph 96% 0.05 in 0.00 W/m2
06:06 44.7 °F 43.9 °F 29.98 in SSW 9.0 mph 22.0 mph 97% 0.10 in 0.00 W/m2
06:11 44.7 °F 43.6 °F 29.98 in SSE 13.0 mph 22.0 mph 96% 0.10 in 0.00 W/m2
06:16 44.7 °F 43.9 °F 29.97 in South 8.0 mph 21.0 mph 97% 0.06 in 0.00 W/m2
06:21 44.7 °F 43.9 °F 29.97 in SSW 12.0 mph 22.0 mph 97% 0.05 in 0.00 W/m2
06:26 44.7 °F 43.9 °F 29.98 in South 13.0 mph 25.0 mph 97% 0.05 in 0.00 W/m2
06:31 44.6 °F 43.8 °F 29.98 in SSW 1.0 mph 22.0 mph 97% 0.26 in 0.00 W/m2
06:36 44.6 °F 43.5 °F 29.99 in SW 3.0 mph 20.0 mph 96% 0.19 in 0.00 W/m2
06:41 44.5 °F 43.4 °F 30.00 in West 2.0 mph 11.0 mph 96% 0.58 in 0.00 W/m2
06:46 44.5 °F 43.4 °F 30.00 in SW 2.0 mph 14.0 mph 96% 0.51 in 0.00 W/m2
06:51 44.5 °F 43.4 °F 30.00 in SSW 5.0 mph 12.0 mph 96% 0.17 in 0.00 W/m2
06:56 44.5 °F 43.4 °F 29.99 in South 4.0 mph 18.0 mph 96% 0.09 in 0.00 W/m2
07:01 44.5 °F 43.4 °F 29.99 in South 4.0 mph 17.0 mph 96% 0.05 in 0.00 W/m2
07:06 44.5 °F 43.4 °F 29.99 in SSE 9.0 mph 23.0 mph 96% 0.04 in 0.00 W/m2
07:11 44.5 °F 43.4 °F 29.99 in SSW 9.0 mph 19.0 mph 96% 0.00 in 0.00 W/m2
07:16 44.5 °F 43.4 °F 29.99 in SSW 11.0 mph 16.0 mph 96% 0.00 in 0.00 W/m2
07:21 44.5 °F 43.4 °F 29.99 in SW 20.0 mph 21.0 mph 96% 0.00 in 0.00 W/m2
07:26 44.5 °F 43.7 °F 29.99 in South 12.0 mph 23.0 mph 97% 0.00 in 0.00 W/m2
07:31 44.6 °F 43.8 °F 29.99 in SSE 12.0 mph 20.0 mph 97% 0.00 in 0.00 W/m2
07:36 44.5 °F 43.7 °F 29.99 in SW 6.0 mph 6.0 mph 97% 0.00 in 0.00 W/m2
07:41 44.5 °F 43.7 °F 29.99 in SW 11.0 mph 24.0 mph 97% 0.00 in 0.00 W/m2
07:46 44.6 °F 43.8 °F 29.99 in South 11.0 mph 20.0 mph 97% 0.00 in 5.00 W/m2
07:51 44.6 °F 43.8 °F 30.00 in South 14.0 mph 20.0 mph 97% 0.00 in 0.00 W/m2
07:56 44.6 °F 43.8 °F 29.99 in SSW 10.0 mph 19.0 mph 97% 0.00 in 0.00 W/m2
08:01 44.6 °F 43.8 °F 30.00 in SSW 11.0 mph 18.0 mph 97% 0.00 in 0.00 W/m2
08:06 44.6 °F 43.8 °F 29.99 in SSW 3.0 mph 25.0 mph 97% 0.43 in 5.00 W/m2
08:11 44.7 °F 43.9 °F 29.99 in South 12.0 mph 24.0 mph 97% 0.14 in 7.00 W/m2
08:16 44.7 °F 43.9 °F 29.99 in SSW 16.0 mph 22.0 mph 97% 0.23 in 7.00 W/m2
08:21 44.7 °F 43.9 °F 29.99 in SW 12.0 mph 12.0 mph 97% 0.14 in 7.00 W/m2
08:26 44.7 °F 43.9 °F 29.99 in South 4.0 mph 17.0 mph 97% 0.14 in 5.00 W/m2
08:31 44.7 °F 43.9 °F 30.00 in WSW 3.0 mph 19.0 mph 97% 0.08 in 5.00 W/m2
08:36 44.7 °F 43.9 °F 30.00 in Calm     97% 0.06 in 11.00 W/m2
08:41 44.7 °F 43.9 °F 30.00 in SSW 7.0 mph 16.0 mph 97% 0.28 in 9.00 W/m2
08:46 44.7 °F 43.9 °F 30.00 in WSW 4.0 mph 18.0 mph 97% 0.38 in 7.00 W/m2
08:51 44.7 °F 43.9 °F 30.01 in SSW 2.0 mph 20.0 mph 97% 0.38 in 9.00 W/m2
08:56 44.7 °F 43.9 °F 30.01 in South 2.0 mph 18.0 mph 97% 0.26 in 7.00 W/m2
09:01 44.7 °F 43.9 °F 30.01 in Calm   11.0 mph 97% 0.23 in 7.00 W/m2
09:06 44.7 °F 43.9 °F 30.00 in Calm   11.0 mph 97% 0.17 in 9.00 W/m2
09:11 44.7 °F 43.9 °F 30.00 in SSW 10.0 mph 18.0 mph 97% 0.14 in 9.00 W/m2
09:16 44.7 °F 43.9 °F 30.00 in Calm     97% 0.08 in 11.00 W/m2
09:21 44.7 °F 43.9 °F 30.00 in South 7.0 mph 8.0 mph 97% 0.08 in 12.00 W/m2
09:26 44.6 °F 43.8 °F 30.00 in SSW 12.0 mph 14.0 mph 97% 0.06 in 12.00 W/m2
09:31 44.7 °F 43.9 °F 30.00 in SSW 6.0 mph 6.0 mph 97% 0.18 in 14.00 W/m2
09:36 44.7 °F 43.9 °F 30.00 in South 2.0 mph 5.0 mph 97% 0.08 in 12.00 W/m2
09:41 44.7 °F 43.9 °F 30.01 in SSW 10.0 mph 15.0 mph 97% 0.20 in 12.00 W/m2
09:46 44.7 °F 43.9 °F 30.01 in SSW 6.0 mph 9.0 mph 97% 0.07 in 12.00 W/m2
09:51 44.7 °F 43.9 °F 30.00 in South 8.0 mph 13.0 mph 97% 0.05 in 30.00 W/m2
09:56 44.7 °F 43.9 °F 30.01 in South 14.0 mph 20.0 mph 97% 0.17 in 28.00 W/m2
10:01 44.7 °F 43.9 °F 30.01 in SSE 10.0 mph 14.0 mph 97% 0.10 in 30.00 W/m2
10:06 44.8 °F 44.0 °F 30.01 in SSW 10.0 mph 16.0 mph 97% 0.06 in 39.00 W/m2
10:11 44.8 °F 44.0 °F 30.01 in WSW 11.0 mph 11.0 mph 97% 0.04 in 32.00 W/m2
10:16 44.9 °F 44.1 °F 30.01 in South 6.0 mph 14.0 mph 97% 0.04 in 28.00 W/m2
10:21 44.9 °F 44.1 °F 30.00 in South 17.0 mph 19.0 mph 97% 0.04 in 39.00 W/m2
10:26 45.0 °F 44.2 °F 30.00 in SSW 14.0 mph 22.0 mph 97% 0.04 in 33.00 W/m2
10:31 45.0 °F 44.2 °F 30.01 in SSW 21.0 mph 21.0 mph 97% 0.00 in 42.00 W/m2
10:36 45.1 °F 44.3 °F 30.00 in SSE 6.0 mph 15.0 mph 97% 0.00 in 21.00 W/m2
10:41 45.1 °F 44.3 °F 30.01 in South 10.0 mph 10.0 mph 97% 0.00 in 25.00 W/m2
10:46 45.2 °F 44.4 °F 30.01 in SSW 13.0 mph 17.0 mph 97% 0.00 in 18.00 W/m2
10:51 45.2 °F 44.4 °F 30.01 in SSW 6.0 mph 11.0 mph 97% 0.04 in 37.00 W/m2
10:56 45.3 °F 44.5 °F 30.01 in WSW 4.0 mph 11.0 mph 97% 0.18 in 18.00 W/m2
11:01 45.3 °F 44.5 °F 30.01 in SW 8.0 mph 10.0 mph 97% 0.14 in 28.00 W/m2
11:06 45.3 °F 44.5 °F 30.00 in Calm   8.0 mph 97% 0.16 in 40.00 W/m2
11:12 45.3 °F 44.5 °F 30.00 in SSW 13.0 mph 13.0 mph 97% 0.14 in 23.00 W/m2
11:17 45.2 °F 44.4 °F 30.00 in Calm   2.0 mph 97% 0.09 in 25.00 W/m2
11:22 45.2 °F 44.4 °F 30.00 in WSW 4.0 mph 12.0 mph 97% 0.22 in 25.00 W/m2
11:27 45.2 °F 44.4 °F 30.00 in SW 11.0 mph 14.0 mph 97% 0.20 in 39.00 W/m2
11:32 45.1 °F 44.3 °F 29.99 in SW 5.0 mph 16.0 mph 97% 0.29 in 35.00 W/m2
11:37 45.0 °F 44.2 °F 29.99 in SW 6.0 mph 13.0 mph 97% 0.27 in 30.00 W/m2
11:42 45.0 °F 44.2 °F 29.99 in SW 10.0 mph 13.0 mph 97% 0.22 in 39.00 W/m2
11:47 45.0 °F 44.2 °F 29.99 in WSW 7.0 mph 9.0 mph 97% 0.27 in 39.00 W/m2
11:52 45.0 °F 44.2 °F 29.98 in South 10.0 mph 11.0 mph 97% 0.13 in 33.00 W/m2
12:02 45.0 °F 44.2 °F 29.98 in Calm   14.0 mph 97% 0.12 in 28.00 W/m2
12:07 45.1 °F 44.3 °F 29.98 in SW 11.0 mph 12.0 mph 97% 0.24 in 25.00 W/m2
12:12 45.1 °F 44.3 °F 29.98 in SW 18.0 mph 22.0 mph 97% 0.25 in 32.00 W/m2
12:17 45.0 °F 44.2 °F 29.98 in WSW 7.0 mph 15.0 mph 97% 0.26 in 32.00 W/m2
12:22 45.1 °F 44.3 °F 29.98 in SW 9.0 mph 12.0 mph 97% 0.23 in 26.00 W/m2
12:27 45.0 °F 44.2 °F 29.98 in West 9.0 mph 17.0 mph 97% 0.24 in 33.00 W/m2
12:32 45.0 °F 44.2 °F 29.98 in West 8.0 mph 9.0 mph 97% 0.35 in 23.00 W/m2
12:37 45.0 °F 44.2 °F 29.98 in WSW 7.0 mph 12.0 mph 97% 0.23 in 23.00 W/m2
12:42 45.0 °F 44.2 °F 29.98 in SW 9.0 mph 13.0 mph 97% 0.23 in 33.00 W/m2
12:47 44.9 °F 44.1 °F 29.97 in SW 10.0 mph 12.0 mph 97% 0.20 in 42.00 W/m2
12:52 44.9 °F 44.1 °F 29.97 in WSW 6.0 mph 14.0 mph 97% 0.13 in 33.00 W/m2
12:57 44.9 °F 44.1 °F 29.97 in SW 13.0 mph 14.0 mph 97% 0.17 in 37.00 W/m2
13:02 44.9 °F 44.1 °F 29.97 in SW 7.0 mph 15.0 mph 97% 0.10 in 33.00 W/m2
13:07 44.8 °F 44.0 °F 29.97 in WSW 8.0 mph 12.0 mph 97% 0.14 in 28.00 W/m2
13:12 44.8 °F 44.0 °F 29.97 in WSW 5.0 mph 10.0 mph 97% 0.29 in 26.00 W/m2
13:17 44.8 °F 44.0 °F 29.97 in West 8.0 mph 16.0 mph 97% 0.20 in 37.00 W/m2
13:22 44.8 °F 44.0 °F 29.97 in WSW 2.0 mph 8.0 mph 97% 0.17 in 28.00 W/m2
13:27 44.7 °F 43.9 °F 29.97 in WSW 15.0 mph 21.0 mph 97% 0.21 in 28.00 W/m2
13:32 44.6 °F 43.8 °F 29.97 in WSW 7.0 mph 13.0 mph 97% 0.16 in 28.00 W/m2
13:37 44.5 °F 43.7 °F 29.98 in WSW 6.0 mph 13.0 mph 97% 0.17 in 32.00 W/m2
13:42 44.3 °F 43.5 °F 29.98 in WSW 8.0 mph 18.0 mph 97% 0.12 in 28.00 W/m2
13:47 44.2 °F 43.4 °F 29.98 in West 8.0 mph 17.0 mph 97% 0.19 in 33.00 W/m2
13:52 44.0 °F 43.2 °F 29.98 in SW 7.0 mph 13.0 mph 97% 0.12 in 33.00 W/m2
13:57 43.9 °F 43.1 °F 29.98 in SW 6.0 mph 10.0 mph 97% 0.09 in 25.00 W/m2
14:02 43.8 °F 42.7 °F 29.99 in WSW 7.0 mph 15.0 mph 96% 0.14 in 26.00 W/m2
14:07 43.7 °F 42.6 °F 29.98 in Calm   8.0 mph 96% 0.21 in 21.00 W/m2
14:12 43.7 °F 42.6 °F 29.98 in West 7.0 mph 9.0 mph 96% 0.13 in 25.00 W/m2
14:17 43.7 °F 42.6 °F 29.98 in West 5.0 mph 10.0 mph 96% 0.14 in 25.00 W/m2
14:22 43.7 °F 42.6 °F 29.98 in SW 5.0 mph 12.0 mph 96% 0.12 in 21.00 W/m2
14:27 43.7 °F 42.6 °F 29.98 in SW 3.0 mph 16.0 mph 96% 0.19 in 35.00 W/m2
14:32 43.7 °F 42.6 °F 29.98 in SW 5.0 mph 10.0 mph 96% 0.09 in 26.00 W/m2
14:37 43.6 °F 42.5 °F 29.98 in West 10.0 mph 13.0 mph 96% 0.14 in 30.00 W/m2
14:47 43.5 °F 42.4 °F 29.99 in West 8.0 mph 12.0 mph 96% 0.08 in 39.00 W/m2
14:53 43.4 °F 42.3 °F 29.99 in West 3.0 mph 9.0 mph 96% 0.09 in 32.00 W/m2
15:02 43.3 °F 42.2 °F 29.99 in West 6.0 mph 9.0 mph 96% 0.08 in 19.00 W/m2
15:08 43.2 °F 42.1 °F 29.99 in West 9.0 mph 11.0 mph 96% 0.14 in 21.00 W/m2
15:13 43.1 °F 42.0 °F 30.00 in West 6.0 mph 10.0 mph 96% 0.10 in 14.00 W/m2
15:18 42.9 °F 41.8 °F 30.00 in Calm   8.0 mph 96% 0.12 in 16.00 W/m2
15:23 42.8 °F 41.7 °F 30.00 in WSW 7.0 mph 9.0 mph 96% 0.08 in 14.00 W/m2
15:28 42.7 °F 41.6 °F 30.00 in WSW 7.0 mph 8.0 mph 96% 0.10 in 14.00 W/m2
15:29 42.7 °F 41.6 °F 30.00 in Calm   8.0 mph 96% 0.10 in 16.00 W/m2
15:34 42.5 °F 41.4 °F 30.00 in Calm     96% 0.09 in 12.00 W/m2
15:39 42.4 °F 41.3 °F 30.00 in Calm   1.0 mph 96% 0.08 in 11.00 W/m2
15:44 42.3 °F 41.2 °F 30.00 in Calm     96% 0.14 in 11.00 W/m2
15:49 42.3 °F 41.2 °F 30.00 in Calm     96% 0.08 in 11.00 W/m2
15:54 42.2 °F 41.1 °F 30.00 in Calm     96% 0.14 in 14.00 W/m2
15:59 42.2 °F 41.1 °F 30.00 in Calm     96% 0.08 in 11.00 W/m2
16:04 42.1 °F 41.0 °F 30.00 in Calm     96% 0.07 in 12.00 W/m2
16:09 42.1 °F 41.0 °F 30.00 in Calm     96% 0.12 in 9.00 W/m2
16:14 42.0 °F 40.9 °F 30.00 in Calm     96% 0.07 in 11.00 W/m2
16:19 42.0 °F 40.9 °F 30.00 in Calm     96% 0.07 in 5.00 W/m2
16:24 42.0 °F 40.9 °F 30.00 in Calm     96% 0.09 in 5.00 W/m2
16:29 42.0 °F 40.9 °F 29.99 in Calm     96% 0.07 in 5.00 W/m2
16:34 42.0 °F 40.9 °F 29.99 in Calm     96% 0.07 in 0.00 W/m2
16:39 42.0 °F 40.9 °F 29.99 in Calm     96% 0.08 in 5.00 W/m2
16:44 42.0 °F 40.9 °F 29.99 in Calm     96% 0.08 in 0.00 W/m2
16:49 42.0 °F 40.9 °F 29.98 in Calm     96% 0.06 in 0.00 W/m2
16:54 42.0 °F 40.9 °F 29.98 in Calm     96% 0.12 in 0.00 W/m2
16:59 42.0 °F 40.9 °F 29.98 in Calm     96% 0.08 in 0.00 W/m2
17:04 42.0 °F 40.9 °F 29.98 in Calm     96% 0.08 in 0.00 W/m2
17:09 42.0 °F 40.9 °F 29.98 in Calm     96% 0.13 in 0.00 W/m2
17:14 42.0 °F 40.9 °F 29.98 in Calm     96% 0.08 in 0.00 W/m2
17:19 41.9 °F 40.8 °F 29.98 in Calm     96% 0.08 in 0.00 W/m2
17:25 41.8 °F 40.8 °F 29.98 in Calm     96% 0.08 in 0.00 W/m2
17:30 41.8 °F 40.8 °F 29.98 in Calm     96% 0.06 in 0.00 W/m2
17:35 41.8 °F 40.8 °F 29.98 in Calm     96% 0.06 in 0.00 W/m2
17:45 41.8 °F 40.8 °F 29.97 in Calm     96% 0.07 in 0.00 W/m2
17:50 41.7 °F 40.7 °F 29.97 in Calm     96% 0.06 in 0.00 W/m2
17:55 41.7 °F 40.7 °F 29.97 in Calm     96% 0.06 in 0.00 W/m2
18:00 41.7 °F 40.7 °F 29.97 in Calm     96% 0.08 in 0.00 W/m2
18:05 41.6 °F 40.8 °F 29.97 in Calm     97% 0.07 in 0.00 W/m2
18:10 41.6 °F 40.8 °F 29.97 in Calm     97% 0.06 in 0.00 W/m2
18:15 41.6 °F 40.5 °F 29.97 in Calm     96% 0.12 in 0.00 W/m2
18:20 41.6 °F 40.5 °F 29.97 in Calm     96% 0.08 in 0.00 W/m2
18:25 41.6 °F 40.5 °F 29.96 in Calm     96% 0.07 in 0.00 W/m2
18:30 41.6 °F 40.5 °F 29.96 in Calm     96% 0.07 in 0.00 W/m2
18:35 41.6 °F 40.5 °F 29.97 in Calm     96% 0.07 in 0.00 W/m2
18:40 41.6 °F 40.5 °F 29.96 in Calm     96% 0.06 in 0.00 W/m2
18:45 41.6 °F 40.5 °F 29.96 in Calm     96% 0.05 in 0.00 W/m2
18:50 41.6 °F 40.5 °F 29.96 in Calm     96% 0.05 in 0.00 W/m2
18:55 41.5 °F 40.5 °F 29.96 in Calm     96% 0.05 in 0.00 W/m2
19:00 41.6 °F 40.5 °F 29.96 in Calm     96% 0.05 in 0.00 W/m2
19:05 41.6 °F 40.5 °F 29.97 in Calm     96% 0.05 in 0.00 W/m2
19:10 41.6 °F 40.5 °F 29.97 in Calm     96% 0.04 in 0.00 W/m2
19:15 41.6 °F 40.5 °F 29.97 in Calm     96% 0.04 in 0.00 W/m2
19:20 41.6 °F 40.8 °F 29.97 in Calm     97% 0.08 in 0.00 W/m2
19:25 41.6 °F 40.8 °F 29.97 in Calm     97% 0.14 in 0.00 W/m2
19:26 41.7 °F 40.9 °F 29.97 in Calm     97% 0.14 in 0.00 W/m2
19:31 41.7 °F 40.9 °F 29.97 in Calm     97% 0.08 in 0.00 W/m2
19:36 41.7 °F 40.9 °F 29.98 in Calm     97% 0.08 in 0.00 W/m2
19:41 41.7 °F 40.9 °F 29.98 in Calm     97% 0.05 in 0.00 W/m2
19:46 41.7 °F 40.9 °F 29.98 in Calm     97% 0.04 in 0.00 W/m2
19:51 41.6 °F 40.8 °F 29.97 in Calm     97% 0.04 in 0.00 W/m2
19:56 41.5 °F 40.7 °F 29.97 in Calm     97% 0.06 in 0.00 W/m2
20:01 41.5 °F 40.7 °F 29.97 in Calm     97% 0.06 in 0.00 W/m2
20:06 41.4 °F 40.3 °F 29.97 in Calm     96% 0.06 in 0.00 W/m2
20:11 41.4 °F 40.3 °F 29.97 in Calm     96% 0.04 in 0.00 W/m2
20:16 41.3 °F 40.5 °F 29.97 in Calm     97% 0.00 in 0.00 W/m2
20:21 41.3 °F 40.5 °F 29.97 in Calm     97% 0.00 in 0.00 W/m2
20:26 41.3 °F 40.5 °F 29.96 in Calm     97% 0.00 in 0.00 W/m2
20:31 41.3 °F 40.5 °F 29.97 in Calm     97% 0.00 in 0.00 W/m2
20:36 41.3 °F 40.5 °F 29.97 in Calm     97% 0.00 in 0.00 W/m2
20:41 41.3 °F 40.5 °F 29.96 in Calm     97% 0.00 in 0.00 W/m2
20:46 41.3 °F 40.5 °F 29.97 in Calm     97% 0.00 in 0.00 W/m2
20:51 41.3 °F 40.5 °F 29.96 in Calm     97% 0.00 in 0.00 W/m2
20:56 41.4 °F 40.6 °F 29.96 in Calm     97% 0.08 in 0.00 W/m2
21:01 41.4 °F 40.6 °F 29.96 in Calm     97% 0.08 in 0.00 W/m2
21:06 41.4 °F 40.6 °F 29.96 in Calm     97% 0.05 in 0.00 W/m2
21:11 41.4 °F 40.6 °F 29.96 in Calm     97% 0.04 in 0.00 W/m2
21:16 41.4 °F 40.6 °F 29.96 in Calm     97% 0.00 in 0.00 W/m2
21:21 41.4 °F 40.6 °F 29.96 in Calm     97% 0.00 in 0.00 W/m2
21:26 41.4 °F 40.6 °F 29.96 in Calm     97% 0.00 in 0.00 W/m2
21:31 41.4 °F 40.6 °F 29.96 in Calm     97% 0.00 in 0.00 W/m2
21:36 41.5 °F 40.7 °F 29.96 in Calm     97% 0.00 in 0.00 W/m2
21:41 41.4 °F 40.6 °F 29.96 in Calm     97% 0.00 in 0.00 W/m2
21:46 41.5 °F 40.7 °F 29.97 in Calm     97% 0.05 in 0.00 W/m2
21:51 41.5 °F 40.7 °F 29.98 in Calm     97% 0.16 in 0.00 W/m2
21:56 41.5 °F 40.7 °F 29.98 in Calm   11.0 mph 97% 0.09 in 0.00 W/m2
22:01 41.5 °F 40.7 °F 29.98 in Calm     97% 0.13 in 0.00 W/m2
22:06 41.6 °F 40.8 °F 29.98 in Calm     97% 0.09 in 0.00 W/m2
22:11 41.6 °F 40.8 °F 29.99 in Calm     97% 0.05 in 0.00 W/m2
22:16 41.7 °F 40.9 °F 29.99 in Calm     97% 0.04 in 0.00 W/m2
22:21 41.7 °F 40.9 °F 29.99 in Calm     97% 0.00 in 0.00 W/m2
22:26 41.7 °F 40.9 °F 29.99 in Calm     97% 0.00 in 0.00 W/m2
22:31 41.7 °F 40.9 °F 29.98 in Calm     97% 0.00 in 0.00 W/m2
22:36 41.7 °F 40.9 °F 29.98 in Calm     97% 0.00 in 0.00 W/m2
22:41 41.7 °F 40.9 °F 29.98 in Calm     97% 0.00 in 0.00 W/m2
22:46 41.6 °F 40.8 °F 29.98 in Calm     97% 0.00 in 0.00 W/m2
22:51 41.6 °F 40.8 °F 29.98 in Calm     97% 0.00 in 0.00 W/m2
22:56 41.6 °F 40.8 °F 29.98 in Calm     97% 0.00 in 0.00 W/m2
23:01 41.6 °F 40.8 °F 29.98 in Calm     97% 0.00 in 0.00 W/m2
23:06 41.6 °F 40.8 °F 29.98 in Calm     97% 0.00 in 0.00 W/m2
23:11 41.6 °F 40.8 °F 29.98 in Calm     97% 0.00 in 0.00 W/m2
23:16 41.6 °F 40.8 °F 29.98 in Calm     97% 0.00 in 0.00 W/m2
23:21 41.6 °F 40.8 °F 29.98 in Calm     97% 0.05 in 0.00 W/m2
23:26 41.6 °F 40.8 °F 29.99 in Calm     97% 0.05 in 0.00 W/m2
23:31 41.6 °F 40.8 °F 29.98 in Calm     97% 0.08 in 0.00 W/m2
23:36 41.6 °F 40.8 °F 29.98 in Calm     97% 0.08 in 0.00 W/m2
23:41 41.6 °F 40.8 °F 29.97 in Calm     97% 0.05 in 0.00 W/m2
23:46 41.6 °F 40.8 °F 29.98 in Calm     97% 0.00 in 0.00 W/m2
23:51 41.6 °F 40.8 °F 29.98 in Calm     97% 0.00 in 0.00 W/m2
23:56 41.6 °F 40.8 °F 29.98 in Calm     97% 0.00 in 0.00 W/m2
Foresthill Weather
 WU-history PHP script courtesy of   Juneau County Weather.
powered by Cumulus v1.9.3 (1059)
Ambient Weather VWS v14.00
Top Contact Website Map Copyright © 2007 - 2018 Foresthillweather.com Never base important decisions on this or any weather information obtained from the Internet